Terminal Aerodrome Forecast
Issued by NWS

Home | Current Version | Previous Version | Graphics & Text | Print | Product List | Glossary On
Versions: 1 2 3 4 5 6 7 8 9 10 11 12 13 14 15 16 17 18 19 20 21 22 23
855
FTUS41 KCLE 250531
TAFFDY
TAF
KFDY 250531Z 2506/2606 08011KT P6SM VCSH SCT015 OVC020
      TEMPO 2508/2511 BKN015 OVC020
     FM251500 03005KT P6SM OVC020
     FM252100 32008KT P6SM BKN010 OVC020=

USA.gov is the U.S. government's official web portal to all federal, state and local government web resources and services.